AirNav   Everest Fuels
 
 715 users online  

ID09 S Bar Ranch Airport
Hill City, Idaho, USA

GOING TO HILL CITY?


FAA INFORMATION EFFECTIVE 11 AUGUST 2022

Location

FAA Identifier: ID09
Lat/Long: 43-15-36.0000N 115-14-55.0000W
43-15.600000N 115-14.916667W
43.2600000,-115.2486111
(estimated)
Elevation: 5406 ft. / 1648 m (estimated)
From city: 9 miles SW of HILL CITY, ID
Time zone: UTC -6 (UTC -7 during Standard Time)
Zip code: 83322

Airport Operations

Airport use: Private use. Permission required prior to landing
Activation date: 11/2016
Control tower: no
ARTCC: SALT LAKE CITY CENTER
FSS: BOISE FLIGHT SERVICE STATION
Attendance: 
Wind indicator: yes
Segmented circle: no

Nearby radio navigation aids

VOR radial/distance  VOR name  Freq  Var
LIAr036/(28.4)LIBERATOR VOR114.9018E

Airport Services

Runway Information

Runway 9/27

Dimensions: 1749 x 25 ft. / 533 x 8 m
Surface: gravel, in good condition
RUNWAY 9  RUNWAY 27
Traffic pattern: rightleft

Airport Ownership and Management from official FAA records

Ownership: Privately-owned
Owner: S BAR RANCH LLC
PO BOX 1065
SUN VALLEY, ID 83353
Phone 208 726 4300
Manager: CHRIS R. STEPHENS
PO BOX 1065
SUN VALLEY, ID 83353
Phone 208 726 4300

Airport Operational Statistics

Aircraft based on the field: 2
Single engine airplanes: 2
    

Additional Remarks

FOR CD CTC SALT LAKE ARTCC AT 801-320-2568.

Instrument Procedures

There are no published instrument procedures at ID09.

Some nearby airports with instrument procedures:

U76 - Mountain Home Municipal Airport (22 nm W)
KGNG - Gooding Municipal Airport (29 nm SE)
KMUO - Mountain Home Air Force Base (30 nm SW)
KSUN - Friedman Memorial Airport (44 nm E)
KBOI - Boise Air Terminal/Gowen Field (46 nm NW)
 
Loc | Ops | Rwys | IFR | FBO | Links
Com | Nav | Svcs | Stats | Notes
Aerial photo
WARNING: Photo may not be current or correct
Aerial photo of ID09 (S Bar Ranch Airport)
Photo by Chris R. Stephens
Photo taken 25-May-2018
looking east.

Do you have a better or more recent aerial photo of S Bar Ranch Airport that you would like to share? If so, please send us your photo.

 
Airport distance calculator
Flying to S Bar Ranch Airport? Find the distance to fly.

From to ID09

Sunrise and sunset
Times for 16-Aug-2022
 Local
(UTC-6)
 Zulu
(UTC)
Morning civil twilight06:1812:18
Sunrise06:4812:48
Sunset20:4202:42
Evening civil twilight21:1303:13

Current date and time
Zulu (UTC)  17-Aug-2022 05:53:31
Local (UTC-6)  16-Aug-2022 23:53:31
 
METAR
KGNG 
30nm SE 
170535Z AUTO 04003KT 10SM CLR 24/03 A3004 RMK AO2
KMUO 
30nm SW 
170458Z AUTO 01009KT 10SM CLR 29/03 A2992 RMK AO2 SLP100 T02880029
KSUN 
44nm E 
170451Z 27007KT 10SM SKC 18/07 A3017
TAF
KMUO 
30nm SW 
170200Z 1702/1808 30009KT 9999 FEW080 QNH2988INS BECMG 1709/1710 VRB06KT 9999 FEW170 QNH2996INS BECMG 1722/1723 32009KT 9999 FEW080 FEW180 QNH2993INS BECMG 1802/1803 VRB06KT 9999 FEW070 FEW180 QNH2993INS TX40/1723Z TN16/1712Z
NOTAMs
Click for the latest NOTAMs
NOTAMs are issued by the DoD/FAA and will open in a separate window not controlled by AirNav.

 

 
 

Would you like to see your business listed on this page?

 If your business provides an interesting product or service to pilots, flight crews, aircraft, or users of the S Bar Ranch Airport, you should consider listing it here.  To start the listing process, click on the button below
 
Add a business
 

Other Pages about S Bar Ranch Airport

Update a link
 
Copyright © AirNav, LLC. All rights reserved. Privacy Policy  Contact